ANAHUAC TX US current weather conditions

sailwx.info

Wind from 101 at 3 knots gusting 5

Air temperature 11.1° C
Dewpoint 10.8° C

Last reported at 2019-Dec-13 11:12 UTC.
Time now 2019-Dec-13 12:45 UTC

Location: N 29°40' W 094°26'.
View on Google Maps.

See reports from other nearby stations

  
Tides and Currents Weather Stations Pressure Air Temp Water Temp Dewpoint Dewpoint Depression Visibility Wind Speed Wind Dir Waves Ship Positions
date/time (UTC)wind fromknots sea level pressurealtimeterstation pressurevisibilityair tempwater tempwave heightnotes
2019-Dec-13 11:12 101 3 gusting 5 11.1
2019-Dec-13 10:12 347 4 gusting 6 11.7
2019-Dec-13 09:12 357 1 gusting 3 11.7
2019-Dec-13 08:12 031 1 gusting 2 11.1
2019-Dec-13 06:12 109 3 gusting 5 11.7
2019-Dec-13 04:12 087 4 gusting 6 11.1
2019-Dec-13 03:12 069 3 gusting 5 11.7
2019-Dec-13 02:12 086 4 gusting 5 11.7
2019-Dec-13 01:12 102 3 gusting 4 12.8
2019-Dec-13 00:12 119 2 gusting 4 13.9
2019-Dec-12 23:12 047 2 gusting 6 16.7
2019-Dec-12 22:12 022 2 gusting 4 17.8
2019-Dec-12 21:12 345 3 gusting 7 18.9
2019-Dec-12 20:12 015 4 gusting 6 18.3
2019-Dec-12 19:12 046 4 gusting 10 17.2
2019-Dec-12 18:12 089 3 gusting 6 16.7
2019-Dec-12 17:12 100 6 gusting 10 14.4
2019-Dec-12 16:12 066 8 gusting 11 11.1
2019-Dec-12 15:12 075 8 gusting 13 7.8
2019-Dec-12 14:12 055 6 gusting 10 5.0
2019-Dec-12 13:12 058 6 gusting 8 3.9
2019-Dec-12 12:12 029 6 gusting 7 3.3
2019-Dec-12 11:12 018 5 gusting 6 3.3
2019-Dec-12 10:12 352 4 gusting 6 3.3
2019-Dec-12 09:12 013 6 gusting 6 3.9
2019-Dec-12 08:12 040 4 gusting 5 3.9
2019-Dec-12 06:12 006 5 gusting 6 4.4
2019-Dec-12 05:12 009 4 gusting 6 5.0
2019-Dec-12 04:12 035 5 gusting 6 6.1
2019-Dec-12 03:12 036 5 gusting 6 6.1
2019-Dec-12 02:12 033 6 gusting 6 6.7
2019-Dec-12 01:12 020 6 gusting 6 8.3
2019-Dec-12 00:12 021 5 gusting 7 10.0
2019-Dec-11 23:12 030 6 gusting 13 14.4
2019-Dec-11 22:12 052 11 gusting 18 15.6
2019-Dec-11 21:12 035 11 gusting 18 15.6
2019-Dec-11 20:12 033 9 gusting 15 14.4
2019-Dec-11 19:12 027 10 gusting 16 13.3
2019-Dec-11 18:12 032 10 gusting 14 11.7
2019-Dec-11 17:12 021 11 gusting 17 10.0
2019-Dec-11 16:12 007 8 gusting 14 8.3
2019-Dec-11 15:12 022 11 gusting 16 6.7
2019-Dec-11 14:12 026 11 gusting 17 6.1
2019-Dec-11 13:12 021 11 gusting 17 6.1
2019-Dec-11 12:12 017 13 gusting 19 6.1